createdAt,value
2018-05-27T00:02:10.409Z,76.10
2018-05-27T00:04:38.003Z,76.20
2018-05-27T00:07:06.328Z,73.70
2018-05-27T00:09:33.889Z,73.40
2018-05-27T00:12:01.448Z,77.50
2018-05-27T00:14:29.005Z,74.00
2018-05-27T00:16:56.589Z,76.20
2018-05-27T00:19:24.166Z,74.10
2018-05-27T00:21:51.720Z,75.10
2018-05-27T00:24:19.281Z,75.60
2018-05-27T00:26:46.843Z,75.50
2018-05-27T00:29:14.430Z,78.40
2018-05-27T00:31:41.988Z,80.30
2018-05-27T00:34:09.545Z,81.30
2018-05-27T00:36:37.885Z,81.30
2018-05-27T00:39:05.442Z,81.20
2018-05-27T00:41:33.024Z,79.60
2018-05-27T00:44:00.584Z,77.20
2018-05-27T00:46:28.142Z,78.10
2018-05-27T00:48:55.712Z,76.50
2018-05-27T00:51:23.270Z,77.90
2018-05-27T00:53:59.355Z,78.30
2018-05-27T00:56:26.916Z,78.10
2018-05-27T00:58:54.482Z,76.50
2018-05-27T01:01:22.032Z,78.70
2018-05-27T01:03:49.588Z,78.70
2018-05-27T01:06:17.176Z,76.70
2018-05-27T01:08:44.737Z,80.90
2018-05-27T01:11:12.300Z,80.60
2018-05-27T01:13:39.856Z,81.30
2018-05-27T01:16:07.419Z,81.40
2018-05-27T01:18:35.004Z,79.40
2018-05-27T01:21:02.556Z,81.20
2018-05-27T01:23:30.125Z,82.90
2018-05-27T01:25:57.680Z,85.00
2018-05-27T01:28:25.236Z,85.00
2018-05-27T01:30:53.590Z,88.80
2018-05-27T01:33:21.142Z,88.80
2018-05-27T01:35:48.696Z,88.90
2018-05-27T01:38:16.252Z,84.50
2018-05-27T01:40:43.985Z,81.20
2018-05-27T01:43:11.564Z,84.50
2018-05-27T01:45:39.118Z,85.90
2018-05-27T01:48:06.669Z,85.80
2018-05-27T01:50:34.233Z,85.20
2018-05-27T01:53:01.796Z,85.50
2018-05-27T01:55:29.365Z,87.20
2018-05-27T01:57:56.921Z,86.50
2018-05-27T02:00:24.477Z,86.40
2018-05-27T02:02:52.024Z,90.10
2018-05-27T02:05:19.576Z,90.70
2018-05-27T02:07:47.156Z,90.90
2018-05-27T02:10:14.711Z,89.70
2018-05-27T02:12:42.260Z,89.60
2018-05-27T02:15:09.816Z,90.40
2018-05-27T02:17:37.420Z,89.40
2018-05-27T02:20:05.759Z,90.40
2018-05-27T02:22:33.316Z,90.40
2018-05-27T02:25:00.868Z,86.30
2018-05-27T02:27:28.423Z,85.60
2018-05-27T02:29:55.983Z,86.50
2018-05-27T02:32:23.573Z,83.30
2018-05-27T02:34:51.124Z,84.20
2018-05-27T02:37:18.681Z,85.90
2018-05-27T02:39:46.237Z,85.60
2018-05-27T02:42:13.865Z,86.20
2018-05-27T02:44:41.441Z,86.30
2018-05-27T02:47:08.996Z,85.10
2018-05-27T02:49:36.558Z,85.10
2018-05-27T02:52:04.112Z,85.90
2018-05-27T02:54:31.664Z,83.50
2018-05-27T02:56:59.256Z,84.00
2018-05-27T02:59:26.812Z,86.80
2018-05-27T03:01:54.381Z,89.40
2018-05-27T03:04:22.705Z,89.00
2018-05-27T03:06:50.266Z,88.80
2018-05-27T03:09:17.844Z,86.20
2018-05-27T03:11:45.404Z,84.70
2018-05-27T03:14:12.959Z,85.00
2018-05-27T03:16:40.517Z,85.30
2018-05-27T03:19:08.072Z,84.40
2018-05-27T03:21:35.653Z,83.70
2018-05-27T03:24:04.176Z,83.10
2018-05-27T03:26:31.734Z,82.30
2018-05-27T03:29:00.577Z,82.10
2018-05-27T03:31:28.131Z,80.90
2018-05-27T03:33:55.712Z,80.80
2018-05-27T03:36:23.290Z,78.40
2018-05-27T03:38:50.854Z,79.70
2018-05-27T03:41:18.416Z,79.20
2018-05-27T03:43:45.980Z,80.50
2018-05-27T03:46:13.553Z,79.40
2018-05-27T03:48:41.104Z,76.40
2018-05-27T03:51:08.660Z,77.00
2018-05-27T03:53:36.220Z,76.80
2018-05-27T03:56:03.806Z,76.50
2018-05-27T03:58:31.391Z,76.30
2018-05-27T04:00:59.712Z,74.90
2018-05-27T04:03:27.273Z,74.90
2018-05-27T04:06:06.756Z,75.10
2018-05-27T04:08:35.083Z,73.50
2018-05-27T04:11:02.710Z,73.50
2018-05-27T04:13:30.278Z,72.50
2018-05-27T04:15:57.833Z,71.40
2018-05-27T04:18:25.388Z,72.50
2018-05-27T04:20:52.944Z,70.10
2018-05-27T04:23:20.556Z,69.80
2018-05-27T04:25:48.108Z,70.30
2018-05-27T04:28:15.668Z,69.10
2018-05-27T04:30:43.288Z,68.30
2018-05-27T04:33:10.839Z,69.50
2018-05-27T04:35:39.167Z,68.20
2018-05-27T04:38:06.718Z,68.00
2018-05-27T04:40:34.268Z,68.30
2018-05-27T04:43:01.844Z,68.70
2018-05-27T04:45:29.399Z,66.90
2018-05-27T04:47:56.953Z,68.20
2018-05-27T04:50:24.522Z,68.10
2018-05-27T04:52:52.079Z,67.90
2018-05-27T04:55:19.671Z,67.90
2018-05-27T04:57:47.232Z,67.90
2018-05-27T05:00:15.554Z,68.10
2018-05-27T05:02:43.117Z,68.00
2018-05-27T05:05:10.672Z,67.10
2018-05-27T05:07:38.279Z,66.40
2018-05-27T05:10:05.841Z,65.70
2018-05-27T05:12:34.164Z,64.10
2018-05-27T05:15:01.730Z,64.10
2018-05-27T05:17:29.302Z,65.40
2018-05-27T05:19:56.882Z,63.90
2018-05-27T05:22:24.442Z,64.40
2018-05-27T05:24:52.008Z,65.30
2018-05-27T05:27:20.348Z,63.00
2018-05-27T05:29:47.908Z,62.90
2018-05-27T05:32:15.464Z,63.40
2018-05-27T05:34:43.024Z,62.50
2018-05-27T05:37:10.583Z,62.90
2018-05-27T05:39:38.132Z,63.40
2018-05-27T05:42:05.684Z,61.20
2018-05-27T05:44:33.240Z,60.60
2018-05-27T05:47:00.800Z,60.90
2018-05-27T05:49:28.360Z,59.70
2018-05-27T05:51:55.924Z,59.50
2018-05-27T05:54:23.480Z,57.60
2018-05-27T05:56:51.044Z,57.70
2018-05-27T05:59:18.608Z,56.50
2018-05-27T06:01:46.176Z,56.00
2018-05-27T06:04:13.729Z,55.10
2018-05-27T06:06:41.285Z,55.30
2018-05-27T06:09:09.609Z,53.90
2018-05-27T06:11:37.175Z,53.80
2018-05-27T06:14:04.772Z,52.00
2018-05-27T06:16:32.328Z,51.20
2018-05-27T06:19:00.648Z,49.50
2018-05-27T06:21:28.204Z,49.50
2018-05-27T06:23:55.758Z,49.00
2018-05-27T06:26:23.468Z,48.60
2018-05-27T06:28:51.019Z,47.90
2018-05-27T06:31:19.768Z,47.10
2018-05-27T06:33:47.327Z,47.20
2018-05-27T06:36:15.395Z,45.30
2018-05-27T06:38:42.992Z,46.40
2018-05-27T06:41:10.569Z,46.70
2018-05-27T06:43:38.128Z,44.40
2018-05-27T06:46:05.680Z,44.90
2018-05-27T06:48:33.249Z,44.40
2018-05-27T06:51:00.833Z,42.20
2018-05-27T06:53:30.090Z,40.10
2018-05-27T06:55:57.659Z,40.10
2018-05-27T06:58:25.212Z,40.70
2018-05-27T07:00:52.776Z,39.80
2018-05-27T07:03:20.361Z,39.20
2018-05-27T07:05:48.680Z,40.40
2018-05-27T07:08:16.241Z,40.30
2018-05-27T07:10:43.796Z,40.00
2018-05-27T07:13:11.368Z,39.60
2018-05-27T07:15:39.012Z,37.40
2018-05-27T07:18:06.568Z,38.90
2018-05-27T07:20:34.127Z,38.20
2018-05-27T07:23:01.685Z,41.10
2018-05-27T07:25:29.242Z,36.90
2018-05-27T07:27:56.833Z,38.80
2018-05-27T07:30:24.412Z,39.20
2018-05-27T07:32:52.048Z,36.60
2018-05-27T07:35:19.608Z,36.90
2018-05-27T07:37:47.164Z,37.50
2018-05-27T07:40:14.841Z,38.60
2018-05-27T07:42:42.425Z,37.20
2018-05-27T07:45:10.001Z,35.30
2018-05-27T07:47:38.320Z,36.80
2018-05-27T07:50:06.650Z,36.20
2018-05-27T07:52:34.784Z,36.30
2018-05-27T07:55:02.961Z,33.70
2018-05-27T07:57:30.551Z,36.80
2018-05-27T07:59:58.198Z,36.70
2018-05-27T08:02:25.776Z,32.80
2018-05-27T08:04:53.368Z,34.10
2018-05-27T08:07:20.949Z,32.80
2018-05-27T08:09:49.297Z,32.00
2018-05-27T08:12:17.112Z,32.00
2018-05-27T08:14:45.831Z,33.40
2018-05-27T08:17:13.410Z,34.10
2018-05-27T08:19:40.983Z,31.70
2018-05-27T08:22:08.544Z,32.70
2018-05-27T08:24:36.103Z,31.90
2018-05-27T08:27:03.669Z,35.00
2018-05-27T08:29:32.016Z,34.50
2018-05-27T08:32:00.146Z,34.40
2018-05-27T08:34:27.708Z,32.40
2018-05-27T08:36:56.427Z,32.40
2018-05-27T08:39:24.020Z,32.30
2018-05-27T08:41:52.395Z,33.30
2018-05-27T08:44:20.721Z,30.60
2018-05-27T08:46:48.295Z,30.50
2018-05-27T08:49:15.854Z,32.00
2018-05-27T08:51:43.440Z,29.80
2018-05-27T08:54:11.790Z,31.10
2018-05-27T08:56:41.271Z,30.90
2018-05-27T08:59:08.920Z,30.00
2018-05-27T09:01:36.487Z,30.00
2018-05-27T09:04:04.091Z,30.40
2018-05-27T09:06:32.578Z,28.70
2018-05-27T09:09:00.964Z,31.40
2018-05-27T09:11:29.478Z,29.50
2018-05-27T09:13:57.146Z,29.60
2018-05-27T09:16:24.720Z,29.70
2018-05-27T09:18:52.304Z,28.50
2018-05-27T09:21:19.861Z,29.10
2018-05-27T09:23:48.185Z,27.20
2018-05-27T09:26:15.959Z,27.20
2018-05-27T09:28:43.525Z,28.60
2018-05-27T09:31:11.163Z,29.90
2018-05-27T09:33:38.731Z,28.90
2018-05-27T09:36:06.319Z,28.00
2018-05-27T09:38:33.874Z,28.40
2018-05-27T09:41:01.433Z,27.70
2018-05-27T09:43:29.019Z,27.40
2018-05-27T09:45:57.341Z,24.20
2018-05-27T09:48:24.901Z,24.10
2018-05-27T09:50:52.458Z,24.80
2018-05-27T09:53:20.029Z,24.70
2018-05-27T09:55:47.640Z,24.80
2018-05-27T09:58:15.192Z,25.00
2018-05-27T10:00:42.748Z,25.30
2018-05-27T10:03:11.070Z,26.50
2018-05-27T10:05:38.658Z,26.50
2018-05-27T10:08:07.003Z,27.50
2018-05-27T10:10:34.565Z,25.00
2018-05-27T10:13:02.124Z,26.30
2018-05-27T10:15:29.680Z,25.20
2018-05-27T10:17:57.247Z,27.70
2018-05-27T10:20:24.821Z,27.50
2018-05-27T10:22:52.390Z,25.00
2018-05-27T10:25:19.944Z,26.50
2018-05-27T10:27:47.524Z,26.10
2018-05-27T10:30:15.851Z,29.60
2018-05-27T10:32:43.460Z,29.50
2018-05-27T10:35:11.033Z,27.80
2018-05-27T10:37:38.592Z,26.80
2018-05-27T10:40:06.152Z,26.60
2018-05-27T10:42:33.700Z,26.70
2018-05-27T10:45:01.309Z,27.40
2018-05-27T10:47:28.877Z,28.60
2018-05-27T10:49:56.429Z,28.40
2018-05-27T10:52:23.988Z,28.80
2018-05-27T10:54:51.558Z,28.60
2018-05-27T10:57:19.168Z,28.40
2018-05-27T10:59:46.948Z,28.10
2018-05-27T11:02:14.514Z,27.60
2018-05-27T11:04:42.081Z,27.90
2018-05-27T11:07:09.636Z,27.50
2018-05-27T11:09:37.226Z,26.60
2018-05-27T11:12:04.791Z,28.30
2018-05-27T11:14:33.114Z,29.30
2018-05-27T11:17:00.670Z,29.20
2018-05-27T11:19:28.222Z,30.00
2018-05-27T11:21:56.567Z,29.30
2018-05-27T11:24:24.166Z,29.40
2018-05-27T11:26:51.735Z,28.30
2018-05-27T11:29:19.288Z,29.50
2018-05-27T11:31:46.841Z,28.10
2018-05-27T11:34:14.398Z,28.40
2018-05-27T11:36:41.949Z,27.50
2018-05-27T11:39:09.512Z,28.80
2018-05-27T11:41:38.948Z,28.70
2018-05-27T11:44:06.506Z,28.00
2018-05-27T11:46:34.075Z,27.90
2018-05-27T11:49:01.648Z,30.00
2018-05-27T11:51:29.200Z,29.30
2018-05-27T11:53:57.524Z,29.90
2018-05-27T11:56:25.107Z,29.90
2018-05-27T11:58:52.656Z,28.90
2018-05-27T12:01:20.231Z,29.40
2018-05-27T12:03:47.784Z,29.80
2018-05-27T12:06:15.338Z,28.70
2018-05-27T12:08:43.316Z,29.00
2018-05-27T12:11:10.872Z,29.70
2018-05-27T12:13:38.455Z,29.60
2018-05-27T12:16:06.778Z,29.90
2018-05-27T12:18:34.332Z,29.80
2018-05-27T12:21:01.888Z,30.60
2018-05-27T12:23:29.449Z,28.20
2018-05-27T12:25:57.028Z,29.00
2018-05-27T12:28:24.582Z,26.50
2018-05-27T12:30:52.141Z,28.00
2018-05-27T12:33:19.704Z,26.10
2018-05-27T12:35:47.260Z,27.00
2018-05-27T12:38:14.844Z,26.20
2018-05-27T12:40:42.423Z,25.90
2018-05-27T12:43:09.984Z,26.10
2018-05-27T12:45:37.536Z,26.60
2018-05-27T12:48:05.248Z,27.00
2018-05-27T12:50:33.027Z,26.10
2018-05-27T12:53:00.667Z,26.20
2018-05-27T12:55:28.248Z,26.50
2018-05-27T12:57:55.802Z,27.50
2018-05-27T13:00:23.375Z,27.70
2018-05-27T13:02:50.960Z,27.30
2018-05-27T13:05:18.525Z,27.50
2018-05-27T13:07:46.076Z,27.70
2018-05-27T13:10:13.666Z,27.20
2018-05-27T13:12:41.269Z,27.20
2018-05-27T13:15:08.852Z,28.00
2018-05-27T13:17:36.412Z,29.10
2018-05-27T13:20:03.976Z,28.50
2018-05-27T13:22:31.552Z,27.40
2018-05-27T13:24:59.100Z,28.60
2018-05-27T13:27:26.687Z,27.50
2018-05-27T13:29:54.268Z,27.40
2018-05-27T13:32:21.832Z,28.10
2018-05-27T13:34:49.384Z,28.70
2018-05-27T13:37:17.062Z,29.10
2018-05-27T13:39:44.658Z,27.90
2018-05-27T13:42:12.220Z,29.00
2018-05-27T13:44:39.786Z,27.30
2018-05-27T13:47:07.341Z,28.20
2018-05-27T13:49:34.915Z,29.00
2018-05-27T13:52:02.493Z,27.60
2018-05-27T13:54:31.003Z,28.40
2018-05-27T13:56:58.562Z,29.80
2018-05-27T13:59:26.908Z,27.40
2018-05-27T14:01:54.481Z,27.30
2018-05-27T14:04:22.032Z,28.60
2018-05-27T14:06:49.590Z,28.50
2018-05-27T14:09:17.141Z,28.60
2018-05-27T14:11:44.727Z,28.10
2018-05-27T14:14:12.284Z,28.00
2018-05-27T14:16:39.848Z,29.60
2018-05-27T14:19:08.709Z,30.00
2018-05-27T14:21:39.203Z,29.60
2018-05-27T14:24:08.768Z,28.50
2018-05-27T14:26:37.417Z,29.30
2018-05-27T14:29:05.060Z,29.80
2018-05-27T14:31:32.616Z,29.90
2018-05-27T14:34:00.435Z,27.90
2018-05-27T14:36:28.032Z,28.90
2018-05-27T14:38:55.703Z,29.30
2018-05-27T14:41:23.262Z,28.90
2018-05-27T14:43:50.821Z,28.30
2018-05-27T14:46:18.383Z,30.00
2018-05-27T14:48:45.981Z,29.10
2018-05-27T14:51:13.532Z,28.80
2018-05-27T14:53:41.851Z,27.10
2018-05-27T14:56:09.408Z,26.90
2018-05-27T14:58:36.964Z,28.50
2018-05-27T15:01:04.536Z,27.50
2018-05-27T15:03:32.088Z,28.30
2018-05-27T15:05:59.640Z,28.20
2018-05-27T15:08:27.200Z,28.20
2018-05-27T15:10:54.769Z,29.10
2018-05-27T15:13:22.366Z,29.60
2018-05-27T15:15:49.928Z,28.80
2018-05-27T15:18:18.252Z,30.60
2018-05-27T15:20:45.808Z,30.60
2018-05-27T15:23:13.457Z,29.60
2018-05-27T15:25:41.046Z,28.60
2018-05-27T15:28:08.600Z,28.70
2018-05-27T15:30:36.924Z,29.00
2018-05-27T15:33:04.488Z,29.00
2018-05-27T15:35:32.821Z,28.90
2018-05-27T15:38:01.180Z,27.40
2018-05-27T15:40:28.748Z,27.40
2018-05-27T15:42:56.303Z,28.70
2018-05-27T15:45:23.876Z,29.10
2018-05-27T15:47:52.206Z,26.40
2018-05-27T15:50:19.808Z,26.30
2018-05-27T15:52:47.633Z,26.70
2018-05-27T15:55:15.191Z,27.70
2018-05-27T15:57:42.744Z,26.50
2018-05-27T16:00:10.301Z,25.60
2018-05-27T16:02:37.876Z,25.80
2018-05-27T16:05:05.433Z,25.40
2018-05-27T16:07:32.984Z,26.30
2018-05-27T16:10:00.572Z,26.70
2018-05-27T16:12:28.248Z,26.40
2018-05-27T16:14:56.600Z,25.50
2018-05-27T16:17:24.156Z,26.00
2018-05-27T16:19:51.712Z,26.50
2018-05-27T16:22:19.296Z,27.10
2018-05-27T16:24:46.875Z,27.50
2018-05-27T16:27:14.457Z,26.60
2018-05-27T16:29:42.954Z,27.10
2018-05-27T16:32:10.516Z,28.10
2018-05-27T16:34:38.081Z,27.30
2018-05-27T16:37:05.674Z,26.30
2018-05-27T16:39:33.324Z,26.10
2018-05-27T16:42:00.883Z,25.60
2018-05-27T16:44:28.508Z,26.60
2018-05-27T16:46:56.090Z,27.40
2018-05-27T16:49:23.672Z,26.60
2018-05-27T16:51:51.257Z,26.30
2018-05-27T16:54:18.813Z,27.70
2018-05-27T16:56:46.437Z,27.40
2018-05-27T16:59:14.016Z,27.00
2018-05-27T17:01:41.604Z,26.90
2018-05-27T17:04:09.227Z,27.20
2018-05-27T17:06:36.818Z,27.60
2018-05-27T17:09:05.242Z,27.30
2018-05-27T17:11:32.866Z,27.00
2018-05-27T17:14:00.470Z,26.80
2018-05-27T17:16:28.089Z,28.10
2018-05-27T17:18:55.676Z,27.30
2018-05-27T17:21:23.352Z,27.40
2018-05-27T17:23:50.916Z,27.00
2018-05-27T17:26:18.559Z,26.80
2018-05-27T17:28:46.135Z,25.80
2018-05-27T17:31:14.573Z,27.50
2018-05-27T17:33:42.241Z,27.50
2018-05-27T17:36:09.805Z,28.80
2018-05-27T17:38:37.357Z,27.70
2018-05-27T17:41:04.936Z,27.80
2018-05-27T17:43:32.497Z,28.90
2018-05-27T17:46:00.285Z,28.40
2018-05-27T17:48:28.021Z,28.20
2018-05-27T17:50:55.584Z,28.60
2018-05-27T17:53:24.115Z,28.80
2018-05-27T17:55:51.668Z,28.70
2018-05-27T17:58:19.240Z,27.50
2018-05-27T18:00:46.792Z,27.80
2018-05-27T18:03:14.351Z,28.00
2018-05-27T18:05:41.907Z,28.10
2018-05-27T18:08:09.471Z,28.60
2018-05-27T18:10:37.027Z,28.90
2018-05-27T18:13:04.648Z,29.40
2018-05-27T18:15:32.222Z,29.90
2018-05-27T18:17:59.808Z,28.70
2018-05-27T18:20:27.403Z,29.40
2018-05-27T18:22:54.955Z,30.60
2018-05-27T18:25:22.515Z,29.80
2018-05-27T18:27:50.101Z,30.10
2018-05-27T18:30:18.428Z,31.90
2018-05-27T18:32:45.983Z,31.80
2018-05-27T18:35:13.543Z,32.30
2018-05-27T18:37:41.102Z,32.00
2018-05-27T18:40:08.688Z,33.20
2018-05-27T18:42:36.286Z,33.80
2018-05-27T18:45:03.840Z,34.60
2018-05-27T18:47:32.092Z,34.80
2018-05-27T18:49:59.648Z,34.20
2018-05-27T18:52:28.016Z,33.70
2018-05-27T18:54:56.346Z,33.90
2018-05-27T18:57:23.911Z,33.90
2018-05-27T18:59:52.284Z,33.90
2018-05-27T19:02:19.842Z,33.80
2018-05-27T19:04:47.417Z,33.40
2018-05-27T19:07:14.975Z,34.60
2018-05-27T19:09:43.100Z,34.90
2018-05-27T19:12:11.416Z,35.90
2018-05-27T19:14:38.981Z,35.90
2018-05-27T19:17:07.152Z,35.20
2018-05-27T19:19:36.313Z,36.00
2018-05-27T19:22:03.864Z,35.90
2018-05-27T19:24:31.429Z,36.80
2018-05-27T19:26:58.988Z,36.10
2018-05-27T19:29:26.556Z,37.40
2018-05-27T19:31:54.136Z,39.00
2018-05-27T19:34:21.692Z,38.10
2018-05-27T19:36:49.252Z,38.40
2018-05-27T19:39:16.804Z,39.30
2018-05-27T19:41:44.352Z,39.10
2018-05-27T19:44:11.934Z,39.20
2018-05-27T19:46:40.300Z,39.60
2018-05-27T19:49:07.914Z,39.50
2018-05-27T19:51:36.369Z,40.60
2018-05-27T19:54:03.932Z,40.40
2018-05-27T19:56:31.516Z,41.20
2018-05-27T19:58:59.097Z,41.30
2018-05-27T20:01:26.672Z,41.70
2018-05-27T20:03:54.228Z,41.30
2018-05-27T20:06:21.789Z,42.00
2018-05-27T20:08:49.384Z,42.20
2018-05-27T20:11:16.950Z,43.10
2018-05-27T20:13:45.865Z,44.20
2018-05-27T20:16:13.429Z,44.10
2018-05-27T20:18:40.993Z,43.20
2018-05-27T20:21:08.582Z,43.80
2018-05-27T20:23:36.152Z,44.80
2018-05-27T20:26:03.725Z,45.20
2018-05-27T20:28:31.280Z,44.80
2018-05-27T20:30:59.624Z,45.80
2018-05-27T20:33:27.211Z,45.70
2018-05-27T20:35:55.536Z,44.70
2018-05-27T20:38:23.096Z,44.70
2018-05-27T20:40:50.676Z,45.90
2018-05-27T20:43:18.232Z,45.90
2018-05-27T20:45:45.816Z,45.70
2018-05-27T20:48:13.380Z,46.90
2018-05-27T20:50:41.706Z,46.50
2018-05-27T20:53:09.284Z,46.50
2018-05-27T20:55:36.840Z,46.80
2018-05-27T20:58:04.420Z,48.80
2018-05-27T21:00:31.973Z,48.10
2018-05-27T21:02:59.524Z,47.60
2018-05-27T21:05:27.084Z,48.90
2018-05-27T21:07:54.640Z,48.10
2018-05-27T21:10:22.220Z,47.50
2018-05-27T21:12:49.780Z,47.90
2018-05-27T21:15:18.100Z,48.40
2018-05-27T21:17:45.660Z,48.30
2018-05-27T21:20:13.218Z,49.60
2018-05-27T21:22:40.808Z,48.70
2018-05-27T21:25:08.364Z,48.60
2018-05-27T21:27:35.921Z,48.70
2018-05-27T21:30:03.472Z,49.00
2018-05-27T21:32:31.034Z,48.60
2018-05-27T21:34:58.604Z,49.10
2018-05-27T21:37:26.157Z,50.10
2018-05-27T21:39:53.712Z,50.20
2018-05-27T21:42:21.272Z,50.10
2018-05-27T21:44:48.832Z,48.70
2018-05-27T21:47:16.410Z,49.20
2018-05-27T21:49:44.490Z,50.50
2018-05-27T21:52:12.055Z,49.50
2018-05-27T21:54:39.612Z,50.00
2018-05-27T21:57:07.179Z,50.20
2018-05-27T21:59:34.788Z,50.50
2018-05-27T22:02:02.348Z,50.80
2018-05-27T22:04:29.910Z,52.30
2018-05-27T22:06:57.460Z,51.20
2018-05-27T22:09:25.015Z,51.80
2018-05-27T22:11:52.598Z,50.80
2018-05-27T22:14:20.152Z,50.60
2018-05-27T22:16:47.714Z,51.30
2018-05-27T22:19:15.276Z,51.30
2018-05-27T22:21:42.834Z,51.90
2018-05-27T22:24:11.177Z,52.80
2018-05-27T22:26:38.732Z,52.80
2018-05-27T22:29:06.288Z,53.60
2018-05-27T22:31:33.840Z,52.90
2018-05-27T22:34:01.392Z,53.00
2018-05-27T22:36:28.980Z,52.50
2018-05-27T22:38:56.555Z,52.00
2018-05-27T22:41:24.881Z,52.20
2018-05-27T22:43:52.444Z,52.10
2018-05-27T22:46:20.001Z,53.30
2018-05-27T22:48:47.588Z,53.90
2018-05-27T22:51:15.153Z,54.00
2018-05-27T22:53:42.720Z,53.10
2018-05-27T22:56:10.280Z,54.10
2018-05-27T22:58:38.616Z,54.20
2018-05-27T23:01:06.248Z,54.10
2018-05-27T23:03:33.788Z,54.20
2018-05-27T23:06:01.351Z,55.60
2018-05-27T23:08:29.669Z,56.60
2018-05-27T23:10:57.218Z,56.50
2018-05-27T23:13:24.800Z,57.10
2018-05-27T23:15:52.348Z,57.10
2018-05-27T23:18:19.952Z,57.10
2018-05-27T23:20:47.506Z,57.30
2018-05-27T23:23:15.055Z,58.30
2018-05-27T23:25:43.396Z,57.70
2018-05-27T23:28:10.945Z,57.60
2018-05-27T23:30:38.493Z,57.60
2018-05-27T23:33:06.075Z,58.30
2018-05-27T23:35:33.624Z,58.80
2018-05-27T23:38:01.200Z,58.20
2018-05-27T23:40:28.760Z,59.10
2018-05-27T23:42:56.308Z,59.10
2018-05-27T23:45:23.856Z,59.40
2018-05-27T23:47:51.409Z,59.30
2018-05-27T23:50:18.988Z,59.90
2018-05-27T23:52:46.546Z,59.50
2018-05-27T23:55:14.128Z,59.60
2018-05-27T23:57:42.469Z,60.60
